createdAt,value
2019-04-27T00:04:06.719Z,4.00
2019-04-27T00:09:07.493Z,3.93
2019-04-27T00:14:01.214Z,3.97
2019-04-27T00:18:58.098Z,4.27
2019-04-27T00:23:53.213Z,3.93
2019-04-27T00:28:47.356Z,4.20
2019-04-27T00:33:41.332Z,3.60
2019-04-27T00:38:39.916Z,3.53
2019-04-27T00:43:34.117Z,3.97
2019-04-27T00:48:28.204Z,3.43
2019-04-27T00:53:23.520Z,3.33
2019-04-27T00:58:23.087Z,3.37
2019-04-27T01:03:24.870Z,3.40
2019-04-27T01:08:18.816Z,3.20
2019-04-27T01:13:13.321Z,3.20
2019-04-27T01:18:13.244Z,3.23
2019-04-27T01:23:03.412Z,4.07
2019-04-27T01:28:11.101Z,3.57
2019-04-27T01:33:05.068Z,3.67
2019-04-27T01:37:59.258Z,3.80
2019-04-27T01:42:53.264Z,4.03
2019-04-27T01:47:47.232Z,3.87
2019-04-27T01:52:41.296Z,3.50
2019-04-27T01:57:35.265Z,3.77
2019-04-27T02:02:31.275Z,3.40
2019-04-27T02:07:25.858Z,3.73
2019-04-27T02:12:19.918Z,3.80
2019-04-27T02:17:13.874Z,3.37
2019-04-27T02:22:08.610Z,3.67
2019-04-27T02:27:03.097Z,3.70
2019-04-27T02:32:17.262Z,3.87
2019-04-27T02:37:11.339Z,3.73
2019-04-27T02:42:05.418Z,3.77
2019-04-27T02:47:00.421Z,4.00
2019-04-27T02:52:02.246Z,3.80
2019-04-27T02:56:56.206Z,4.10
2019-04-27T03:01:53.408Z,4.13
2019-04-27T03:06:49.942Z,4.63
2019-04-27T03:11:43.696Z,4.40
2019-04-27T03:16:39.720Z,4.37
2019-04-27T03:21:52.188Z,4.87
2019-04-27T03:26:50.045Z,4.60
2019-04-27T03:31:47.117Z,5.10
2019-04-27T03:36:40.313Z,5.00
2019-04-27T03:41:34.268Z,4.70
2019-04-27T03:46:30.261Z,4.17
2019-04-27T03:51:26.196Z,3.90
2019-04-27T03:56:34.006Z,3.87
2019-04-27T04:01:30.218Z,4.17
2019-04-27T04:06:24.045Z,4.30
2019-04-27T04:11:36.505Z,3.70
2019-04-27T04:16:39.429Z,3.67
2019-04-27T04:21:33.760Z,4.07
2019-04-27T04:26:29.466Z,3.73
2019-04-27T04:31:23.767Z,4.07
2019-04-27T04:36:19.941Z,3.90
2019-04-27T04:41:19.997Z,4.40
2019-04-27T04:46:34.272Z,4.00
2019-04-27T04:51:30.362Z,4.10
2019-04-27T04:56:24.080Z,3.60
2019-04-27T05:01:19.697Z,3.60
2019-04-27T05:06:13.696Z,3.20
2019-04-27T05:11:09.490Z,3.37
2019-04-27T05:16:03.572Z,3.37
2019-04-27T05:21:16.282Z,3.57
2019-04-27T05:26:10.278Z,3.67
2019-04-27T05:31:04.246Z,3.80
2019-04-27T05:35:59.119Z,3.10
2019-04-27T05:40:53.183Z,3.70
2019-04-27T05:46:14.336Z,3.33
2019-04-27T05:51:09.188Z,3.80
2019-04-27T05:56:03.323Z,3.60
2019-04-27T06:00:59.292Z,3.83
2019-04-27T06:05:53.133Z,3.40
2019-04-27T06:10:48.824Z,4.27
2019-04-27T06:15:42.864Z,4.20
2019-04-27T06:20:50.348Z,3.90
2019-04-27T06:25:32.720Z,4.20
2019-04-27T06:30:26.674Z,4.87
2019-04-27T06:35:20.769Z,4.30
2019-04-27T06:40:14.870Z,4.33
2019-04-27T06:45:09.897Z,4.23
2019-04-27T06:50:04.802Z,4.33
2019-04-27T06:55:00.545Z,5.90
2019-04-27T06:59:54.746Z,5.10
2019-04-27T07:04:49.053Z,4.93
2019-04-27T07:09:43.171Z,5.00
2019-04-27T07:14:50.355Z,4.87
2019-04-27T07:19:33.073Z,4.70
2019-04-27T07:24:29.069Z,4.30
2019-04-27T07:29:23.293Z,4.67
2019-04-27T07:34:18.992Z,4.73
2019-04-27T07:39:13.140Z,5.13
2019-04-27T07:44:11.994Z,5.13
2019-04-27T07:49:06.072Z,4.97
2019-04-27T07:54:00.117Z,5.20
2019-04-27T07:58:54.088Z,5.17
2019-04-27T08:03:49.085Z,5.43
2019-04-27T08:08:43.167Z,6.30
2019-04-27T08:13:39.381Z,5.90
2019-04-27T08:18:33.486Z,6.53
2019-04-27T08:23:29.365Z,6.70
2019-04-27T08:28:42.296Z,7.07
2019-04-27T08:33:36.269Z,7.23
2019-04-27T08:38:30.277Z,7.40
2019-04-27T08:43:24.402Z,7.83
2019-04-27T08:48:33.506Z,9.03
2019-04-27T08:53:14.253Z,8.43
2019-04-27T08:58:10.084Z,7.57
2019-04-27T09:03:04.321Z,8.07
2019-04-27T09:08:12.204Z,8.03
2019-04-27T09:13:24.732Z,7.80
2019-04-27T09:18:20.618Z,8.63
2019-04-27T09:23:14.605Z,8.97
2019-04-27T09:28:08.878Z,8.67
2019-04-27T09:33:03.809Z,9.47
2019-04-27T09:37:57.798Z,8.67
2019-04-27T09:42:51.873Z,8.77
2019-04-27T09:47:46.812Z,4.90
2019-04-27T09:52:41.266Z,3.47
2019-04-27T09:57:36.480Z,2.60
2019-04-27T10:02:30.602Z,3.10
2019-04-27T10:07:26.698Z,2.40
2019-04-27T10:12:20.552Z,2.63
2019-04-27T10:17:14.577Z,2.23
2019-04-27T10:22:08.634Z,2.57
2019-04-27T10:27:03.585Z,2.30
2019-04-27T10:31:57.594Z,2.23
2019-04-27T10:36:51.843Z,2.23
2019-04-27T10:41:46.438Z,1.90
2019-04-27T10:46:40.635Z,2.27
2019-04-27T10:51:36.408Z,1.93
2019-04-27T10:56:30.522Z,1.83
2019-04-27T11:01:25.775Z,1.90
2019-04-27T11:06:33.776Z,1.70
2019-04-27T11:11:27.911Z,1.73
2019-04-27T11:16:22.178Z,1.97
2019-04-27T11:21:16.274Z,2.00
2019-04-27T11:26:10.279Z,2.50
2019-04-27T11:31:05.307Z,1.70
2019-04-27T11:36:17.097Z,2.80
2019-04-27T11:41:11.171Z,1.90
2019-04-27T11:46:06.177Z,1.90
2019-04-27T11:51:00.228Z,1.90
2019-04-27T11:55:54.347Z,1.57
2019-04-27T12:00:48.314Z,1.40
2019-04-27T12:05:42.395Z,1.27
2019-04-27T12:10:36.480Z,1.50
2019-04-27T12:15:30.682Z,1.57
2019-04-27T12:20:25.915Z,1.20
2019-04-27T12:25:20.161Z,1.13
2019-04-27T12:30:18.793Z,1.37
2019-04-27T12:35:12.860Z,1.30
2019-04-27T12:40:07.233Z,1.33
2019-04-27T12:45:02.109Z,1.60
2019-04-27T12:49:57.751Z,1.77
2019-04-27T12:54:54.046Z,1.70
2019-04-27T13:00:06.695Z,2.03
2019-04-27T13:05:00.826Z,1.80
2019-04-27T13:09:56.414Z,1.85
2019-04-27T13:14:50.621Z,1.80
2019-04-27T13:19:45.676Z,1.77
2019-04-27T13:24:39.771Z,1.67
2019-04-27T13:29:35.731Z,1.50
2019-04-27T13:34:34.276Z,1.60
2019-04-27T13:39:28.357Z,1.67
2019-04-27T13:44:22.473Z,2.10
2019-04-27T13:49:24.328Z,1.72
2019-04-27T13:54:25.427Z,2.20
2019-04-27T13:59:15.057Z,2.20
2019-04-27T14:04:09.264Z,2.22
2019-04-27T14:09:05.737Z,1.47
2019-04-27T14:13:59.724Z,1.60
2019-04-27T14:18:53.716Z,1.17
2019-04-27T14:23:48.472Z,1.00
2019-04-27T14:28:42.599Z,1.20
2019-04-27T14:33:39.551Z,1.60
2019-04-27T14:38:32.553Z,1.20
2019-04-27T14:43:28.522Z,1.10
2019-04-27T14:48:22.470Z,1.50
2019-04-27T14:53:16.563Z,1.50
2019-04-27T14:58:10.550Z,1.90
2019-04-27T15:03:04.651Z,1.67
2019-04-27T15:08:01.766Z,1.55
2019-04-27T15:12:55.482Z,1.50
2019-04-27T15:17:49.747Z,1.42
2019-04-27T15:22:45.728Z,1.50
2019-04-27T15:27:44.374Z,1.77
2019-04-27T15:32:49.295Z,1.80
2019-04-27T15:37:48.135Z,1.10
2019-04-27T15:42:51.792Z,1.30
2019-04-27T15:47:49.269Z,1.50
2019-04-27T15:52:38.482Z,1.20
2019-04-27T15:57:32.556Z,1.57
2019-04-27T16:02:26.743Z,1.55
2019-04-27T16:07:24.854Z,1.85
2019-04-27T16:12:18.136Z,1.62
2019-04-27T16:17:12.289Z,2.40
2019-04-27T16:22:08.006Z,1.87
2019-04-27T16:27:02.436Z,2.75
2019-04-27T16:31:58.308Z,2.57
2019-04-27T16:36:52.766Z,2.43
2019-04-27T16:41:50.069Z,2.37
2019-04-27T16:46:43.191Z,1.93
2019-04-27T16:51:40.215Z,1.80
2019-04-27T16:56:33.386Z,1.70
2019-04-27T17:01:30.337Z,2.10
2019-04-27T17:06:24.848Z,1.70
2019-04-27T17:11:19.763Z,2.00
2019-04-27T17:16:31.262Z,2.00
2019-04-27T17:21:23.231Z,2.10
2019-04-27T17:26:21.859Z,2.00
2019-04-27T17:31:20.293Z,2.00
2019-04-27T17:36:16.233Z,1.80
2019-04-27T17:41:12.507Z,1.90
2019-04-27T17:46:07.391Z,1.80
2019-04-27T17:51:03.525Z,2.40
2019-04-27T17:56:02.901Z,2.33
2019-04-27T18:00:53.230Z,2.80
2019-04-27T18:05:50.576Z,4.60
2019-04-27T18:10:43.231Z,12.07
2019-04-27T18:15:38.845Z,4.57
2019-04-27T18:20:33.154Z,3.20
2019-04-27T18:25:28.528Z,2.10
2019-04-27T18:30:42.054Z,1.90
2019-04-27T18:35:36.252Z,1.80
2019-04-27T18:40:32.544Z,2.33
2019-04-27T18:45:28.341Z,2.47
2019-04-27T18:50:24.344Z,2.70
2019-04-27T18:55:20.631Z,3.40
2019-04-27T19:00:16.717Z,3.60
2019-04-27T19:05:10.923Z,4.33
2019-04-27T19:10:05.677Z,5.23
2019-04-27T19:14:59.821Z,8.57
2019-04-27T19:19:53.770Z,4.23
2019-04-27T19:24:47.737Z,4.70
2019-04-27T19:29:43.712Z,4.47
2019-04-27T19:34:38.862Z,10.17
2019-04-27T19:39:33.107Z,7.47
2019-04-27T19:44:28.999Z,4.40
2019-04-27T19:49:23.140Z,2.87
2019-04-27T19:54:17.334Z,4.87
2019-04-27T19:59:13.336Z,4.07
2019-04-27T20:04:14.980Z,4.67
2019-04-27T20:09:24.609Z,4.30
2019-04-27T20:14:18.612Z,3.43
2019-04-27T20:19:12.752Z,3.77
2019-04-27T20:24:06.769Z,5.07
2019-04-27T20:29:01.493Z,3.17
2019-04-27T20:33:55.746Z,2.90
2019-04-27T20:38:50.911Z,3.10
2019-04-27T20:43:45.291Z,3.50
2019-04-27T20:48:41.260Z,2.70
2019-04-27T20:53:43.321Z,2.90
2019-04-27T20:58:37.301Z,3.30
2019-04-27T21:03:33.343Z,7.80
2019-04-27T21:08:31.023Z,6.87
2019-04-27T21:13:25.112Z,4.00
2019-04-27T21:18:19.174Z,8.23
2019-04-27T21:23:13.160Z,3.90
2019-04-27T21:28:17.955Z,4.77
2019-04-27T21:33:03.182Z,3.70
2019-04-27T21:37:57.168Z,4.03
2019-04-27T21:42:51.427Z,4.93
2019-04-27T21:47:45.694Z,6.27
2019-04-27T21:52:47.698Z,4.43
2019-04-27T21:57:41.719Z,4.00
2019-04-27T22:02:35.825Z,11.17
2019-04-27T22:07:31.627Z,9.60
2019-04-27T22:12:25.696Z,8.80
2019-04-27T22:17:19.671Z,3.73
2019-04-27T22:22:15.695Z,5.20
2019-04-27T22:27:09.684Z,4.13
2019-04-27T22:32:03.761Z,2.73
2019-04-27T22:36:57.861Z,3.37
2019-04-27T22:41:56.821Z,2.60
2019-04-27T22:46:52.791Z,3.10
2019-04-27T22:51:46.771Z,3.00
2019-04-27T22:56:42.751Z,3.03
2019-04-27T23:01:42.645Z,3.27
2019-04-27T23:06:37.014Z,2.97
2019-04-27T23:11:31.429Z,3.67
2019-04-27T23:16:27.467Z,3.93
2019-04-27T23:21:21.434Z,2.73
2019-04-27T23:26:15.450Z,2.37
2019-04-27T23:31:11.348Z,2.93
2019-04-27T23:36:05.533Z,3.03
2019-04-27T23:41:01.672Z,2.70
2019-04-27T23:45:56.999Z,2.77
2019-04-27T23:50:52.889Z,3.20
2019-04-27T23:55:46.878Z,2.90
